createdAt,value
2022-10-07T00:01:05.439Z,13.00
2022-10-07T00:03:35.745Z,13.00
2022-10-07T00:06:06.141Z,12.90
2022-10-07T00:08:36.024Z,12.80
2022-10-07T00:11:08.886Z,12.80
2022-10-07T00:13:39.647Z,12.80
2022-10-07T00:16:10.342Z,12.80
2022-10-07T00:18:39.960Z,12.80
2022-10-07T00:21:10.134Z,12.70
2022-10-07T00:23:38.620Z,12.70
2022-10-07T00:26:10.700Z,12.70
2022-10-07T00:28:38.997Z,12.60
2022-10-07T00:31:09.460Z,12.60
2022-10-07T00:33:40.390Z,12.60
2022-10-07T00:36:09.414Z,12.50
2022-10-07T00:38:37.360Z,12.50
2022-10-07T00:41:05.446Z,12.50
2022-10-07T00:43:33.906Z,12.50
2022-10-07T00:46:05.768Z,12.50
2022-10-07T00:48:35.411Z,12.50
2022-10-07T00:51:04.900Z,12.50
2022-10-07T00:53:36.725Z,12.50
2022-10-07T00:56:06.822Z,12.40
2022-10-07T00:58:37.908Z,12.40
2022-10-07T01:01:05.901Z,12.30
2022-10-07T01:03:35.993Z,12.30
2022-10-07T01:06:12.198Z,12.30
2022-10-07T01:08:40.419Z,12.30
2022-10-07T01:11:19.807Z,12.20
2022-10-07T01:14:00.231Z,12.30
2022-10-07T01:16:35.696Z,12.30
2022-10-07T01:19:13.747Z,12.20
2022-10-07T01:21:54.845Z,12.20
2022-10-07T01:24:33.177Z,12.20
2022-10-07T01:27:04.839Z,12.20
2022-10-07T01:29:39.267Z,12.10
2022-10-07T01:32:13.545Z,12.10
2022-10-07T01:34:44.048Z,12.10
2022-10-07T01:37:16.114Z,12.10
2022-10-07T01:39:49.797Z,12.10
2022-10-07T01:42:20.920Z,12.00
2022-10-07T01:44:51.927Z,12.10
2022-10-07T01:47:19.759Z,12.10
2022-10-07T01:49:47.589Z,12.10
2022-10-07T01:52:26.259Z,12.10
2022-10-07T01:55:15.299Z,12.10
2022-10-07T01:57:54.234Z,12.10
2022-10-07T02:00:22.618Z,12.20
2022-10-07T02:03:13.230Z,12.20
2022-10-07T02:05:51.384Z,12.10
2022-10-07T02:08:33.628Z,12.20
2022-10-07T02:11:13.643Z,12.10
2022-10-07T02:13:47.980Z,12.10
2022-10-07T02:16:19.953Z,12.10
2022-10-07T02:18:52.280Z,12.20
2022-10-07T02:21:24.889Z,12.20
2022-10-07T02:23:55.305Z,12.10
2022-10-07T02:26:25.295Z,12.20
2022-10-07T02:28:57.318Z,12.20
2022-10-07T02:31:28.819Z,12.20
2022-10-07T02:33:58.443Z,12.20
2022-10-07T02:36:30.719Z,12.20
2022-10-07T02:39:00.252Z,12.20
2022-10-07T02:41:35.751Z,12.10
2022-10-07T02:44:15.019Z,12.10
2022-10-07T02:46:48.183Z,12.10
2022-10-07T02:49:18.799Z,12.10
2022-10-07T02:51:51.010Z,12.10
2022-10-07T02:54:23.453Z,12.10
2022-10-07T02:56:52.458Z,12.10
2022-10-07T02:59:22.982Z,12.10
2022-10-07T03:01:56.762Z,12.20
2022-10-07T03:04:25.069Z,12.10
2022-10-07T03:06:53.311Z,12.10
2022-10-07T03:09:21.464Z,12.10
2022-10-07T03:11:49.349Z,12.10
2022-10-07T03:14:17.237Z,12.10
2022-10-07T03:16:46.429Z,12.00
2022-10-07T03:19:14.250Z,11.90
2022-10-07T03:21:42.118Z,11.80
2022-10-07T03:24:11.174Z,11.90
2022-10-07T03:26:39.793Z,11.90
2022-10-07T03:29:10.138Z,11.80
2022-10-07T03:31:38.247Z,11.80
2022-10-07T03:34:07.867Z,11.80
2022-10-07T03:36:35.724Z,11.80
2022-10-07T03:39:03.806Z,11.80
2022-10-07T03:41:31.646Z,11.80
2022-10-07T03:43:59.713Z,11.80
2022-10-07T03:46:27.586Z,11.80
2022-10-07T03:48:55.503Z,11.70
2022-10-07T03:51:24.823Z,11.70
2022-10-07T03:53:54.429Z,11.70
2022-10-07T03:56:22.360Z,11.60
2022-10-07T03:58:50.519Z,11.50
2022-10-07T04:01:18.426Z,11.50
2022-10-07T04:03:47.425Z,11.50
2022-10-07T04:06:15.321Z,11.50
2022-10-07T04:08:44.630Z,11.50
2022-10-07T04:11:12.904Z,11.50
2022-10-07T04:13:41.111Z,11.50
2022-10-07T04:16:09.446Z,11.40
2022-10-07T04:18:37.359Z,11.40
2022-10-07T04:21:05.396Z,11.40
2022-10-07T04:23:33.256Z,11.40
2022-10-07T04:26:02.551Z,11.40
2022-10-07T04:28:30.487Z,11.40
2022-10-07T04:30:58.680Z,11.40
2022-10-07T04:33:26.536Z,11.50
2022-10-07T04:35:54.821Z,11.50
2022-10-07T04:38:27.535Z,11.50
2022-10-07T04:40:56.110Z,11.40
2022-10-07T04:43:27.253Z,11.50
2022-10-07T04:46:01.016Z,11.50
2022-10-07T04:48:28.841Z,11.40
2022-10-07T04:51:01.359Z,11.50
2022-10-07T04:53:29.213Z,11.40
2022-10-07T04:55:57.063Z,11.40
2022-10-07T04:58:26.374Z,11.40
2022-10-07T05:00:55.729Z,11.40
2022-10-07T05:03:26.557Z,11.30
2022-10-07T05:05:56.343Z,11.40
2022-10-07T05:08:25.415Z,11.40
2022-10-07T05:10:56.566Z,11.30
2022-10-07T05:13:26.492Z,11.40
2022-10-07T05:15:56.338Z,11.40
2022-10-07T05:18:26.312Z,11.40
2022-10-07T05:20:54.763Z,11.40
2022-10-07T05:23:28.314Z,11.40
2022-10-07T05:26:01.008Z,11.40
2022-10-07T05:28:30.491Z,11.40
2022-10-07T05:31:06.750Z,11.40
2022-10-07T05:33:35.106Z,11.40
2022-10-07T05:36:04.066Z,11.40
2022-10-07T05:38:37.937Z,11.30
2022-10-07T05:41:07.876Z,11.20
2022-10-07T05:43:40.379Z,11.20
2022-10-07T05:46:21.763Z,11.20
2022-10-07T05:48:56.257Z,11.20
2022-10-07T05:51:28.234Z,11.20
2022-10-07T05:54:00.671Z,11.20
2022-10-07T05:56:30.200Z,11.30
2022-10-07T05:58:59.407Z,11.30
2022-10-07T06:01:28.396Z,11.30
2022-10-07T06:03:57.691Z,11.30
2022-10-07T06:06:26.265Z,11.40
2022-10-07T06:08:54.546Z,11.40
2022-10-07T06:11:39.782Z,11.30
2022-10-07T06:14:09.053Z,11.30
2022-10-07T06:16:36.985Z,11.30
2022-10-07T06:19:22.437Z,11.30
2022-10-07T06:21:51.082Z,11.30
2022-10-07T06:24:19.288Z,11.40
2022-10-07T06:26:47.133Z,11.40
2022-10-07T06:29:16.449Z,11.40
2022-10-07T06:31:46.102Z,11.40
2022-10-07T06:34:14.027Z,11.50
2022-10-07T06:36:42.367Z,11.50
2022-10-07T06:39:10.280Z,11.60
2022-10-07T06:41:38.151Z,11.70
2022-10-07T06:44:05.991Z,11.60
2022-10-07T06:46:35.406Z,11.70
2022-10-07T06:49:04.032Z,11.70
2022-10-07T06:51:31.868Z,11.60
2022-10-07T06:53:59.896Z,11.70
2022-10-07T06:56:27.814Z,11.70
2022-10-07T06:58:55.721Z,11.70
2022-10-07T07:01:24.065Z,11.80
2022-10-07T07:03:53.996Z,11.70
2022-10-07T07:06:21.842Z,11.80
2022-10-07T07:08:50.291Z,11.90
2022-10-07T07:11:37.921Z,11.90
2022-10-07T07:14:06.831Z,12.10
2022-10-07T07:16:36.098Z,12.10
2022-10-07T07:19:08.943Z,12.20
2022-10-07T07:21:38.119Z,12.30
2022-10-07T07:24:07.702Z,12.40
2022-10-07T07:26:36.008Z,12.40
2022-10-07T07:29:06.197Z,12.50
2022-10-07T07:31:36.327Z,12.60
2022-10-07T07:34:11.351Z,12.70
2022-10-07T07:36:41.127Z,12.60
2022-10-07T07:39:11.478Z,12.60
2022-10-07T07:41:41.788Z,12.70
2022-10-07T07:44:12.498Z,12.80
2022-10-07T07:46:43.109Z,12.90
2022-10-07T07:49:13.543Z,13.00
2022-10-07T07:51:42.987Z,13.20
2022-10-07T07:54:11.573Z,13.20
2022-10-07T07:56:39.727Z,13.40
2022-10-07T07:59:08.875Z,13.50
2022-10-07T08:01:36.911Z,13.60
2022-10-07T08:04:05.725Z,13.80
2022-10-07T08:06:35.003Z,13.80
2022-10-07T08:09:02.935Z,14.00
2022-10-07T08:11:32.669Z,14.10
2022-10-07T08:14:03.078Z,14.10
2022-10-07T08:16:31.045Z,14.20
2022-10-07T08:18:59.788Z,14.40
2022-10-07T08:21:30.158Z,14.50
2022-10-07T08:24:00.384Z,14.80
2022-10-07T08:26:29.455Z,14.90
2022-10-07T08:28:58.072Z,15.10
2022-10-07T08:31:28.619Z,15.30
2022-10-07T08:33:59.234Z,15.50
2022-10-07T08:36:29.420Z,15.70
2022-10-07T08:38:58.858Z,15.90
2022-10-07T08:41:42.276Z,16.00
2022-10-07T08:44:20.047Z,16.10
2022-10-07T08:46:57.567Z,16.10
2022-10-07T08:49:40.821Z,16.10
2022-10-07T08:52:32.825Z,16.10
2022-10-07T08:55:04.067Z,16.00
2022-10-07T08:57:46.927Z,16.20
2022-10-07T09:00:19.817Z,16.40
2022-10-07T09:03:06.477Z,16.70
2022-10-07T09:05:38.996Z,16.70
2022-10-07T09:08:14.691Z,16.50
2022-10-07T09:10:48.688Z,16.50
2022-10-07T09:13:22.030Z,16.50
2022-10-07T09:15:55.540Z,16.50
2022-10-07T09:18:26.713Z,16.50
2022-10-07T09:20:56.647Z,16.70
2022-10-07T09:23:26.850Z,16.90
2022-10-07T09:25:56.738Z,16.90
2022-10-07T09:28:28.518Z,16.90
2022-10-07T09:30:57.090Z,17.10
2022-10-07T09:33:26.581Z,17.30
2022-10-07T09:35:57.650Z,17.20
2022-10-07T09:38:35.810Z,17.10
2022-10-07T09:41:19.611Z,17.10
2022-10-07T09:44:04.574Z,17.20
2022-10-07T09:46:48.409Z,17.40
2022-10-07T09:49:37.408Z,17.40
2022-10-07T09:52:07.014Z,17.60
2022-10-07T09:54:36.932Z,17.60
2022-10-07T09:57:07.302Z,17.50
2022-10-07T09:59:36.730Z,17.60
2022-10-07T10:02:21.205Z,17.80
2022-10-07T10:04:52.411Z,17.80
2022-10-07T10:07:25.082Z,17.90
2022-10-07T10:09:54.506Z,18.00
2022-10-07T10:12:25.755Z,18.10
2022-10-07T10:14:55.706Z,18.20
2022-10-07T10:17:29.808Z,18.30
2022-10-07T10:20:22.093Z,18.50
2022-10-07T10:22:50.066Z,18.50
2022-10-07T10:25:38.668Z,18.50
2022-10-07T10:28:21.438Z,18.40
2022-10-07T10:30:58.337Z,18.60
2022-10-07T10:33:31.620Z,18.70
2022-10-07T10:36:09.799Z,18.90
2022-10-07T10:38:46.984Z,19.00
2022-10-07T10:41:29.777Z,19.00
2022-10-07T10:44:19.191Z,19.20
2022-10-07T10:46:56.020Z,19.20
2022-10-07T10:49:30.722Z,19.30
2022-10-07T10:52:18.010Z,19.30
2022-10-07T10:55:04.156Z,19.20
2022-10-07T10:57:41.310Z,19.30
2022-10-07T11:00:16.009Z,19.40
2022-10-07T11:03:14.760Z,19.50
2022-10-07T11:05:44.196Z,19.70
2022-10-07T11:08:18.390Z,19.90
2022-10-07T11:10:51.260Z,20.10
2022-10-07T11:13:30.486Z,20.30
2022-10-07T11:16:06.037Z,20.40
2022-10-07T11:18:38.717Z,20.90
2022-10-07T11:21:13.035Z,22.30
2022-10-07T11:23:49.701Z,25.00
2022-10-07T11:26:22.845Z,27.50
2022-10-07T11:28:52.543Z,29.00
2022-10-07T11:31:32.413Z,30.00
2022-10-07T11:34:16.440Z,31.50
2022-10-07T11:36:53.081Z,32.60
2022-10-07T11:39:21.674Z,31.90
2022-10-07T11:41:56.948Z,31.50
2022-10-07T11:44:32.143Z,32.50
2022-10-07T11:47:04.008Z,33.90
2022-10-07T11:49:37.142Z,35.60
2022-10-07T11:52:08.420Z,36.20
2022-10-07T11:54:43.238Z,36.30
2022-10-07T11:57:22.586Z,36.80
2022-10-07T11:59:58.095Z,35.90
2022-10-07T12:02:48.662Z,36.50
2022-10-07T12:06:05.944Z,37.50
2022-10-07T12:08:36.207Z,38.10
2022-10-07T12:11:44.418Z,39.20
2022-10-07T12:14:41.058Z,40.20
2022-10-07T12:17:24.743Z,39.60
2022-10-07T12:20:29.920Z,38.50
2022-10-07T12:23:31.035Z,37.40
2022-10-07T12:26:01.631Z,37.20
2022-10-07T12:28:34.371Z,37.80
2022-10-07T12:31:04.092Z,38.10
2022-10-07T12:33:36.045Z,38.20
2022-10-07T12:36:29.211Z,37.40
2022-10-07T12:39:36.421Z,37.80
2022-10-07T12:42:12.910Z,38.90
2022-10-07T12:44:45.512Z,40.40
2022-10-07T12:47:21.300Z,41.60
2022-10-07T12:49:51.999Z,42.40
2022-10-07T12:52:27.172Z,43.00
2022-10-07T12:54:58.214Z,41.90
2022-10-07T12:57:35.007Z,40.90
2022-10-07T13:00:07.963Z,39.80
2022-10-07T13:03:13.746Z,40.20
2022-10-07T13:06:18.070Z,40.20
2022-10-07T13:09:31.523Z,40.60
2022-10-07T13:12:21.851Z,39.70
2022-10-07T13:15:03.052Z,39.60
2022-10-07T13:17:40.329Z,40.20
2022-10-07T13:20:28.319Z,39.40
2022-10-07T13:22:56.985Z,39.10
2022-10-07T13:25:24.855Z,39.00
2022-10-07T13:28:02.608Z,38.50
2022-10-07T13:30:40.207Z,37.90
2022-10-07T13:33:24.297Z,37.50
2022-10-07T13:35:53.725Z,37.40
2022-10-07T13:38:23.497Z,37.80
2022-10-07T13:41:03.233Z,38.60
2022-10-07T13:43:33.591Z,39.50
2022-10-07T13:46:05.154Z,39.90
2022-10-07T13:48:36.363Z,40.30
2022-10-07T13:51:05.587Z,40.70
2022-10-07T13:53:36.687Z,40.90
2022-10-07T13:56:21.639Z,41.50
2022-10-07T13:58:53.416Z,41.60
2022-10-07T14:01:24.286Z,42.20
2022-10-07T14:04:22.120Z,42.50
2022-10-07T14:06:56.042Z,42.40
2022-10-07T14:09:34.801Z,40.20
2022-10-07T14:12:05.682Z,38.70
2022-10-07T14:14:37.266Z,38.30
2022-10-07T14:17:18.154Z,37.90
2022-10-07T14:19:53.255Z,38.40
2022-10-07T14:22:31.264Z,39.10
2022-10-07T14:25:03.008Z,39.60
2022-10-07T14:28:03.699Z,39.50
2022-10-07T14:30:56.428Z,39.60
2022-10-07T14:33:48.548Z,39.60
2022-10-07T14:36:18.034Z,39.20
2022-10-07T14:38:47.375Z,38.40
2022-10-07T14:41:17.719Z,38.30
2022-10-07T14:43:47.807Z,38.40
2022-10-07T14:46:21.133Z,38.30
2022-10-07T14:48:51.512Z,38.50
2022-10-07T14:51:21.558Z,37.70
2022-10-07T14:53:52.027Z,37.40
2022-10-07T14:56:25.241Z,37.30
2022-10-07T14:58:53.656Z,35.80
2022-10-07T15:01:21.625Z,35.00
2022-10-07T15:03:51.237Z,33.90
2022-10-07T15:06:19.697Z,33.40
2022-10-07T15:08:48.539Z,32.90
2022-10-07T15:11:18.083Z,32.50
2022-10-07T15:13:47.458Z,32.10
2022-10-07T15:16:17.406Z,31.30
2022-10-07T15:18:51.790Z,30.30
2022-10-07T15:21:22.581Z,29.50
2022-10-07T15:23:54.099Z,28.80
2022-10-07T15:26:24.634Z,28.30
2022-10-07T15:28:54.368Z,27.70
2022-10-07T15:31:23.616Z,26.90
2022-10-07T15:33:51.720Z,26.30
2022-10-07T15:36:20.989Z,26.00
2022-10-07T15:38:49.287Z,25.80
2022-10-07T15:41:30.802Z,25.60
2022-10-07T15:43:59.694Z,25.30
2022-10-07T15:46:27.953Z,25.00
2022-10-07T15:48:57.086Z,24.80
2022-10-07T15:51:27.599Z,24.60
2022-10-07T15:53:55.636Z,24.30
2022-10-07T15:56:25.279Z,24.20
2022-10-07T15:58:53.215Z,24.10
2022-10-07T16:01:21.499Z,24.00
2022-10-07T16:03:50.380Z,23.90
2022-10-07T16:06:21.118Z,23.70
2022-10-07T16:08:51.017Z,23.60
2022-10-07T16:11:19.299Z,23.40
2022-10-07T16:13:48.962Z,23.30
2022-10-07T16:16:18.296Z,23.10
2022-10-07T16:18:48.108Z,23.10
2022-10-07T16:21:18.104Z,23.00
2022-10-07T16:23:47.373Z,22.90
2022-10-07T16:26:18.443Z,22.80
2022-10-07T16:29:06.274Z,22.70
2022-10-07T16:31:36.483Z,22.60
2022-10-07T16:34:04.920Z,22.40
2022-10-07T16:36:35.513Z,22.30
2022-10-07T16:39:04.606Z,22.20
2022-10-07T16:41:34.158Z,22.10
2022-10-07T16:44:02.690Z,22.00
2022-10-07T16:46:32.898Z,21.90
2022-10-07T16:49:01.246Z,21.80
2022-10-07T16:51:30.768Z,21.70
2022-10-07T16:54:03.233Z,21.60
2022-10-07T16:56:31.840Z,21.40
2022-10-07T16:59:02.797Z,21.30
2022-10-07T17:01:31.771Z,21.20
2022-10-07T17:04:01.616Z,21.10
2022-10-07T17:06:31.254Z,21.00
2022-10-07T17:09:02.935Z,20.90
2022-10-07T17:11:32.486Z,20.70
2022-10-07T17:14:04.040Z,20.50
2022-10-07T17:16:34.552Z,20.40
2022-10-07T17:19:02.440Z,20.30
2022-10-07T17:21:30.339Z,20.20
2022-10-07T17:23:58.884Z,20.20
2022-10-07T17:26:28.000Z,20.20
2022-10-07T17:29:02.290Z,20.10
2022-10-07T17:31:31.590Z,20.00
2022-10-07T17:33:59.991Z,20.00
2022-10-07T17:36:28.925Z,20.00
2022-10-07T17:38:57.586Z,19.90
2022-10-07T17:41:27.477Z,19.80
2022-10-07T17:43:57.458Z,19.80
2022-10-07T17:46:28.339Z,19.70
2022-10-07T17:48:57.561Z,19.70
2022-10-07T17:51:28.269Z,19.60
2022-10-07T17:53:56.916Z,19.40
2022-10-07T17:56:25.086Z,19.30
2022-10-07T17:58:53.107Z,19.20
2022-10-07T18:01:24.030Z,19.10
2022-10-07T18:03:55.267Z,19.00
2022-10-07T18:06:24.475Z,18.90
2022-10-07T18:08:52.566Z,18.80
2022-10-07T18:11:20.701Z,18.80
2022-10-07T18:14:06.052Z,18.70
2022-10-07T18:16:35.467Z,18.70
2022-10-07T18:19:04.772Z,18.60
2022-10-07T18:21:32.940Z,18.50
2022-10-07T18:24:00.793Z,18.50
2022-10-07T18:26:29.191Z,18.40
2022-10-07T18:28:57.529Z,18.30
2022-10-07T18:31:26.290Z,18.20
2022-10-07T18:33:54.405Z,18.10
2022-10-07T18:36:23.580Z,18.10
2022-10-07T18:38:51.430Z,18.00
2022-10-07T18:41:20.119Z,18.00
2022-10-07T18:43:48.052Z,17.90
2022-10-07T18:46:18.195Z,17.80
2022-10-07T18:48:47.919Z,17.80
2022-10-07T18:51:16.743Z,17.70
2022-10-07T18:53:47.686Z,17.70
2022-10-07T18:56:18.518Z,17.60
2022-10-07T18:58:48.414Z,17.60
2022-10-07T19:01:19.196Z,17.60
2022-10-07T19:03:48.739Z,17.60
2022-10-07T19:06:18.944Z,17.50
2022-10-07T19:08:48.832Z,17.40
2022-10-07T19:11:20.355Z,17.50
2022-10-07T19:13:48.520Z,17.40
2022-10-07T19:16:16.549Z,17.40
2022-10-07T19:18:44.954Z,17.30
2022-10-07T19:21:13.041Z,17.30
2022-10-07T19:23:41.366Z,17.20
2022-10-07T19:26:12.504Z,17.10
2022-10-07T19:28:41.113Z,17.10
2022-10-07T19:31:14.276Z,17.00
2022-10-07T19:33:43.699Z,16.90
2022-10-07T19:36:13.094Z,16.80
2022-10-07T19:38:44.084Z,16.80
2022-10-07T19:41:14.982Z,16.90
2022-10-07T19:43:44.013Z,16.80
2022-10-07T19:46:12.571Z,16.80
2022-10-07T19:48:40.860Z,16.80
2022-10-07T19:51:12.016Z,16.70
2022-10-07T19:53:46.660Z,16.70
2022-10-07T19:56:20.149Z,16.70
2022-10-07T19:58:49.465Z,16.70
2022-10-07T20:01:19.389Z,16.70
2022-10-07T20:03:47.699Z,16.70
2022-10-07T20:06:15.731Z,16.70
2022-10-07T20:08:46.609Z,16.60
2022-10-07T20:11:16.686Z,16.50
2022-10-07T20:13:44.573Z,16.40
2022-10-07T20:16:14.639Z,16.40
2022-10-07T20:18:43.909Z,16.20
2022-10-07T20:21:15.941Z,16.00
2022-10-07T20:23:45.974Z,16.00
2022-10-07T20:26:18.624Z,15.90
2022-10-07T20:28:49.604Z,15.90
2022-10-07T20:31:19.428Z,15.80
2022-10-07T20:33:48.941Z,15.70
2022-10-07T20:36:19.083Z,15.70
2022-10-07T20:39:04.509Z,15.70
2022-10-07T20:41:52.485Z,15.80
2022-10-07T20:44:21.850Z,15.80
2022-10-07T20:46:51.767Z,15.80
2022-10-07T20:49:23.843Z,15.80
2022-10-07T20:51:52.800Z,15.80
2022-10-07T20:54:21.720Z,15.70
2022-10-07T20:56:51.717Z,15.60
2022-10-07T20:59:21.268Z,15.60
2022-10-07T21:01:49.114Z,15.50
2022-10-07T21:04:17.142Z,15.40
2022-10-07T21:06:45.186Z,15.20
2022-10-07T21:09:14.650Z,15.20
2022-10-07T21:11:42.516Z,15.20
2022-10-07T21:14:11.937Z,15.30
2022-10-07T21:16:41.201Z,15.30
2022-10-07T21:19:09.238Z,15.40
2022-10-07T21:21:37.107Z,15.40
2022-10-07T21:24:06.281Z,15.40
2022-10-07T21:26:34.606Z,15.30
2022-10-07T21:29:02.449Z,15.30
2022-10-07T21:31:31.545Z,15.30
2022-10-07T21:34:01.610Z,15.30
2022-10-07T21:36:29.831Z,15.20
2022-10-07T21:38:59.440Z,15.10
2022-10-07T21:41:30.972Z,15.00
2022-10-07T21:43:59.208Z,15.00
2022-10-07T21:46:28.962Z,14.90
2022-10-07T21:48:57.932Z,14.90
2022-10-07T21:51:29.325Z,14.90
2022-10-07T21:53:58.967Z,14.90
2022-10-07T21:56:28.149Z,14.90
2022-10-07T21:58:57.727Z,14.90
2022-10-07T22:01:26.530Z,14.80
2022-10-07T22:03:55.877Z,14.70
2022-10-07T22:06:44.871Z,14.70
2022-10-07T22:09:14.176Z,14.70
2022-10-07T22:11:42.227Z,14.80
2022-10-07T22:14:12.784Z,14.70
2022-10-07T22:16:41.099Z,14.70
2022-10-07T22:19:10.568Z,14.70
2022-10-07T22:21:40.170Z,14.70
2022-10-07T22:24:09.223Z,14.60
2022-10-07T22:26:40.571Z,14.60
2022-10-07T22:29:10.110Z,14.60
2022-10-07T22:31:38.107Z,14.60
2022-10-07T22:34:06.890Z,14.50
2022-10-07T22:36:33.988Z,14.50
2022-10-07T22:39:01.931Z,14.50
2022-10-07T22:41:30.120Z,14.40
2022-10-07T22:43:59.625Z,14.40
2022-10-07T22:46:28.899Z,14.40
2022-10-07T22:48:57.915Z,14.30
2022-10-07T22:51:28.267Z,14.30
2022-10-07T22:53:57.261Z,14.20
2022-10-07T22:56:27.471Z,14.20
2022-10-07T22:58:58.685Z,14.10
2022-10-07T23:01:29.947Z,14.00
2022-10-07T23:04:00.641Z,14.00
2022-10-07T23:06:28.576Z,13.90
2022-10-07T23:08:56.572Z,13.90
2022-10-07T23:11:25.784Z,13.90
2022-10-07T23:13:54.433Z,13.90
2022-10-07T23:16:24.142Z,13.90
2022-10-07T23:18:53.813Z,13.90
2022-10-07T23:21:23.390Z,13.90
2022-10-07T23:23:52.877Z,13.90
2022-10-07T23:26:22.685Z,13.80
2022-10-07T23:28:51.948Z,13.80
2022-10-07T23:31:22.585Z,13.80
2022-10-07T23:33:53.022Z,13.70
2022-10-07T23:36:22.377Z,13.60
2022-10-07T23:38:51.384Z,13.60
2022-10-07T23:41:21.004Z,13.50
2022-10-07T23:43:49.685Z,13.40
2022-10-07T23:46:18.772Z,13.40
2022-10-07T23:48:46.967Z,13.30
2022-10-07T23:51:18.675Z,13.30
2022-10-07T23:53:47.002Z,13.30
2022-10-07T23:56:15.320Z,13.20
2022-10-07T23:58:43.157Z,13.10
